createdAt,value
2018-07-20T00:01:45.593Z,4.33
2018-07-20T00:04:14.280Z,4.40
2018-07-20T00:06:42.941Z,4.13
2018-07-20T00:09:11.674Z,4.70
2018-07-20T00:11:40.414Z,4.97
2018-07-20T00:14:09.238Z,5.00
2018-07-20T00:16:37.923Z,4.70
2018-07-20T00:19:07.565Z,4.00
2018-07-20T00:21:36.310Z,4.60
2018-07-20T00:24:05.132Z,4.00
2018-07-20T00:26:33.961Z,4.30
2018-07-20T00:29:03.352Z,4.80
2018-07-20T00:31:32.215Z,3.97
2018-07-20T00:34:01.208Z,4.07
2018-07-20T00:36:29.983Z,4.50
2018-07-20T00:38:58.747Z,4.53
2018-07-20T00:41:28.802Z,4.40
2018-07-20T00:43:57.525Z,4.20
2018-07-20T00:46:26.878Z,4.30
2018-07-20T00:48:55.651Z,4.73
2018-07-20T00:51:24.494Z,4.60
2018-07-20T00:53:53.305Z,4.10
2018-07-20T00:56:21.946Z,5.20
2018-07-20T00:58:50.742Z,4.80
2018-07-20T01:01:19.511Z,5.00
2018-07-20T01:03:48.173Z,4.60
2018-07-20T01:06:16.774Z,5.00
2018-07-20T01:08:45.472Z,5.07
2018-07-20T01:11:14.141Z,5.20
2018-07-20T01:13:42.901Z,5.13
2018-07-20T01:16:11.514Z,5.30
2018-07-20T01:18:40.868Z,5.30
2018-07-20T01:21:09.563Z,4.80
2018-07-20T01:23:38.299Z,5.17
2018-07-20T01:26:07.312Z,5.80
2018-07-20T01:28:36.015Z,4.93
2018-07-20T01:31:05.253Z,5.27
2018-07-20T01:33:33.986Z,4.43
2018-07-20T01:36:03.842Z,5.33
2018-07-20T01:38:32.721Z,5.60
2018-07-20T01:41:01.351Z,5.70
2018-07-20T01:43:30.064Z,5.50
2018-07-20T01:45:58.794Z,5.07
2018-07-20T01:48:28.308Z,4.80
2018-07-20T01:50:57.126Z,6.00
2018-07-20T01:53:25.831Z,4.83
2018-07-20T01:55:54.526Z,5.80
2018-07-20T01:58:23.163Z,4.90
2018-07-20T02:00:52.321Z,5.50
2018-07-20T02:03:21.049Z,6.80
2018-07-20T02:05:50.374Z,5.40
2018-07-20T02:08:19.044Z,5.20
2018-07-20T02:10:53.354Z,4.97
2018-07-20T02:13:22.134Z,5.57
2018-07-20T02:15:50.738Z,5.23
2018-07-20T02:18:19.400Z,5.33
2018-07-20T02:20:48.089Z,5.90
2018-07-20T02:23:16.773Z,7.30
2018-07-20T02:25:45.641Z,5.13
2018-07-20T02:28:14.365Z,5.30
2018-07-20T02:30:43.195Z,5.87
2018-07-20T02:33:12.043Z,5.70
2018-07-20T02:35:40.902Z,6.47
2018-07-20T02:38:09.606Z,6.53
2018-07-20T02:40:38.388Z,6.00
2018-07-20T02:43:07.392Z,6.37
2018-07-20T02:45:36.067Z,5.90
2018-07-20T02:48:04.932Z,7.90
2018-07-20T02:50:33.568Z,6.80
2018-07-20T02:53:02.332Z,6.57
2018-07-20T02:55:30.920Z,6.03
2018-07-20T02:57:59.623Z,6.10
2018-07-20T03:00:29.004Z,6.83
2018-07-20T03:02:57.720Z,5.97
2018-07-20T03:05:26.720Z,5.93
2018-07-20T03:07:55.968Z,6.40
2018-07-20T03:10:24.815Z,6.37
2018-07-20T03:12:53.462Z,6.77
2018-07-20T03:15:22.117Z,5.90
2018-07-20T03:17:50.909Z,8.00
2018-07-20T03:20:19.628Z,6.90
2018-07-20T03:22:48.416Z,7.13
2018-07-20T03:25:17.145Z,7.63
2018-07-20T03:27:46.291Z,6.80
2018-07-20T03:30:15.078Z,6.70
2018-07-20T03:32:43.770Z,7.70
2018-07-20T03:35:12.533Z,8.23
2018-07-20T03:37:41.783Z,8.35
2018-07-20T03:40:10.877Z,8.10
2018-07-20T03:42:39.573Z,7.15
2018-07-20T03:45:08.553Z,7.70
2018-07-20T03:47:37.217Z,7.10
2018-07-20T03:50:06.388Z,7.80
2018-07-20T03:52:35.173Z,7.63
2018-07-20T03:55:03.980Z,7.95
2018-07-20T03:57:33.234Z,8.00
2018-07-20T04:00:01.992Z,7.60
2018-07-20T04:02:30.868Z,7.73
2018-07-20T04:04:59.589Z,7.92
2018-07-20T04:07:28.467Z,8.50
2018-07-20T04:09:57.064Z,7.95
2018-07-20T04:12:28.123Z,8.80
2018-07-20T04:14:58.709Z,9.23
2018-07-20T04:17:31.670Z,9.13
2018-07-20T04:20:00.534Z,7.90
2018-07-20T04:22:29.218Z,8.20
2018-07-20T04:24:58.083Z,8.30
2018-07-20T04:27:26.823Z,8.63
2018-07-20T04:29:55.619Z,7.58
2018-07-20T04:32:24.471Z,8.45
2018-07-20T04:34:53.095Z,8.50
2018-07-20T04:37:22.099Z,8.23
2018-07-20T04:39:50.845Z,8.95
2018-07-20T04:42:19.655Z,9.28
2018-07-20T04:44:49.004Z,8.63
2018-07-20T04:47:17.781Z,8.40
2018-07-20T04:49:47.440Z,8.63
2018-07-20T04:52:16.743Z,7.67
2018-07-20T04:54:45.659Z,8.68
2018-07-20T04:57:14.568Z,7.70
2018-07-20T04:59:43.229Z,8.40
2018-07-20T05:02:12.236Z,7.90
2018-07-20T05:04:41.091Z,8.40
2018-07-20T05:07:10.025Z,7.70
2018-07-20T05:09:38.776Z,7.23
2018-07-20T05:12:07.595Z,7.10
2018-07-20T05:14:36.316Z,8.23
2018-07-20T05:17:06.253Z,8.40
2018-07-20T05:19:35.107Z,8.47
2018-07-20T05:22:04.006Z,8.20
2018-07-20T05:24:33.070Z,8.43
2018-07-20T05:27:01.726Z,8.33
2018-07-20T05:29:31.159Z,8.13
2018-07-20T05:32:00.004Z,8.27
2018-07-20T05:34:28.938Z,9.60
2018-07-20T05:36:57.882Z,8.23
2018-07-20T05:39:26.651Z,8.00
2018-07-20T05:41:58.224Z,9.10
2018-07-20T05:44:28.188Z,9.00
2018-07-20T05:46:56.945Z,8.50
2018-07-20T05:49:25.693Z,9.10
2018-07-20T05:51:55.350Z,8.90
2018-07-20T05:54:24.138Z,8.20
2018-07-20T05:56:52.849Z,7.77
2018-07-20T05:59:21.715Z,8.37
2018-07-20T06:01:50.980Z,8.53
2018-07-20T06:04:19.686Z,9.63
2018-07-20T06:06:48.437Z,8.00
2018-07-20T06:09:17.149Z,7.70
2018-07-20T06:11:45.898Z,7.57
2018-07-20T06:14:15.293Z,7.93
2018-07-20T06:16:44.055Z,8.30
2018-07-20T06:19:12.718Z,8.70
2018-07-20T06:21:41.451Z,7.47
2018-07-20T06:24:10.245Z,7.50
2018-07-20T06:26:38.913Z,7.37
2018-07-20T06:29:07.734Z,7.87
2018-07-20T06:31:37.350Z,7.70
2018-07-20T06:34:06.081Z,8.53
2018-07-20T06:36:34.753Z,8.70
2018-07-20T06:39:05.061Z,10.00
2018-07-20T06:41:34.616Z,8.60
2018-07-20T06:44:03.658Z,10.17
2018-07-20T06:46:32.498Z,8.53
2018-07-20T06:49:01.682Z,7.50
2018-07-20T06:51:30.680Z,7.90
2018-07-20T06:53:59.621Z,9.10
2018-07-20T06:56:28.399Z,8.30
2018-07-20T06:58:57.164Z,8.47
2018-07-20T07:01:25.989Z,8.63
2018-07-20T07:03:54.744Z,8.80
2018-07-20T07:06:23.814Z,8.53
2018-07-20T07:08:52.486Z,9.27
2018-07-20T07:11:21.172Z,10.20
2018-07-20T07:13:49.900Z,10.23
2018-07-20T07:16:18.747Z,9.43
2018-07-20T07:18:47.436Z,8.60
2018-07-20T07:21:16.954Z,10.10
2018-07-20T07:23:45.830Z,10.53
2018-07-20T07:26:14.519Z,10.57
2018-07-20T07:28:43.225Z,10.43
2018-07-20T07:31:11.900Z,10.17
2018-07-20T07:33:40.549Z,9.93
2018-07-20T07:36:09.225Z,10.37
2018-07-20T07:38:37.978Z,10.17
2018-07-20T07:41:06.911Z,10.60
2018-07-20T07:43:35.537Z,10.83
2018-07-20T07:46:04.207Z,11.53
2018-07-20T07:48:32.865Z,10.27
2018-07-20T07:51:01.536Z,10.80
2018-07-20T07:53:30.262Z,10.83
2018-07-20T07:55:58.864Z,8.83
2018-07-20T07:58:27.661Z,10.13
2018-07-20T08:00:56.921Z,10.57
2018-07-20T08:03:25.970Z,10.23
2018-07-20T08:05:54.634Z,10.40
2018-07-20T08:08:23.322Z,11.33
2018-07-20T08:10:51.970Z,11.17
2018-07-20T08:13:20.773Z,10.90
2018-07-20T08:15:49.442Z,10.20
2018-07-20T08:18:18.433Z,9.67
2018-07-20T08:20:47.191Z,10.13
2018-07-20T08:23:15.978Z,10.67
2018-07-20T08:25:45.299Z,10.53
2018-07-20T08:28:13.981Z,9.10
2018-07-20T08:30:42.832Z,8.70
2018-07-20T08:33:12.188Z,9.90
2018-07-20T08:35:40.996Z,10.30
2018-07-20T08:38:10.615Z,9.27
2018-07-20T08:40:39.386Z,8.67
2018-07-20T08:43:08.859Z,10.53
2018-07-20T08:45:37.647Z,9.03
2018-07-20T08:48:06.375Z,7.90
2018-07-20T08:50:35.071Z,8.10
2018-07-20T08:53:03.864Z,8.73
2018-07-20T08:55:32.846Z,9.47
2018-07-20T08:58:01.557Z,8.30
2018-07-20T09:00:30.282Z,10.33
2018-07-20T09:02:58.927Z,8.77
2018-07-20T09:05:27.627Z,7.97
2018-07-20T09:07:57.024Z,9.80
2018-07-20T09:10:25.982Z,7.63
2018-07-20T09:12:54.714Z,7.73
2018-07-20T09:15:23.557Z,8.50
2018-07-20T09:17:52.218Z,8.67
2018-07-20T09:20:21.641Z,8.53
2018-07-20T09:22:50.464Z,7.80
2018-07-20T09:25:19.934Z,8.07
2018-07-20T09:27:48.739Z,7.80
2018-07-20T09:30:17.797Z,7.80
2018-07-20T09:32:46.533Z,8.60
2018-07-20T09:35:15.621Z,8.13
2018-07-20T09:37:44.403Z,7.93
2018-07-20T09:40:13.032Z,8.30
2018-07-20T09:42:41.735Z,7.17
2018-07-20T09:45:10.388Z,8.80
2018-07-20T09:47:39.125Z,9.27
2018-07-20T09:50:07.930Z,7.70
2018-07-20T09:52:36.586Z,5.63
2018-07-20T09:55:05.283Z,7.73
2018-07-20T09:57:34.000Z,7.87
2018-07-20T10:00:02.737Z,7.00
2018-07-20T10:02:31.430Z,6.43
2018-07-20T10:05:00.169Z,8.57
2018-07-20T10:07:29.031Z,7.60
2018-07-20T10:09:57.767Z,7.17
2018-07-20T10:12:26.391Z,7.93
2018-07-20T10:14:55.191Z,8.03
2018-07-20T10:17:23.929Z,7.47
2018-07-20T10:19:52.730Z,8.30
2018-07-20T10:22:21.667Z,7.10
2018-07-20T10:24:50.531Z,8.37
2018-07-20T10:27:20.344Z,7.23
2018-07-20T10:29:49.241Z,8.30
2018-07-20T10:32:19.151Z,7.10
2018-07-20T10:34:47.961Z,8.40
2018-07-20T10:37:16.940Z,6.00
2018-07-20T10:39:45.691Z,6.30
2018-07-20T10:42:14.498Z,6.30
2018-07-20T10:44:43.184Z,6.47
2018-07-20T10:47:12.217Z,6.80
2018-07-20T10:49:40.964Z,5.03
2018-07-20T10:52:09.868Z,5.70
2018-07-20T10:54:38.554Z,6.33
2018-07-20T10:57:07.354Z,5.10
2018-07-20T10:59:35.978Z,4.83
2018-07-20T11:02:04.714Z,5.37
2018-07-20T11:04:33.481Z,4.23
2018-07-20T11:07:02.154Z,4.50
2018-07-20T11:09:30.898Z,5.23
2018-07-20T11:11:59.595Z,5.57
2018-07-20T11:14:28.342Z,4.70
2018-07-20T11:16:57.114Z,5.93
2018-07-20T11:19:26.035Z,4.20
2018-07-20T11:21:54.707Z,4.80
2018-07-20T11:24:24.125Z,5.57
2018-07-20T11:26:52.912Z,4.87
2018-07-20T11:29:22.500Z,5.60
2018-07-20T11:31:51.182Z,4.77
2018-07-20T11:34:19.900Z,5.50
2018-07-20T11:36:48.655Z,4.37
2018-07-20T11:39:17.364Z,4.53
2018-07-20T11:41:46.109Z,4.80
2018-07-20T11:44:14.842Z,4.40
2018-07-20T11:46:43.575Z,4.90
2018-07-20T11:49:12.295Z,5.20
2018-07-20T11:51:40.979Z,4.40
2018-07-20T11:54:09.673Z,4.40
2018-07-20T11:56:38.319Z,6.10
2018-07-20T11:59:07.112Z,4.73
2018-07-20T12:01:35.865Z,4.57
2018-07-20T12:04:04.651Z,4.80
2018-07-20T12:06:33.433Z,4.27
2018-07-20T12:09:05.097Z,5.03
2018-07-20T12:11:33.842Z,4.97
2018-07-20T12:14:02.501Z,4.93
2018-07-20T12:16:31.128Z,4.90
2018-07-20T12:18:59.951Z,4.90
2018-07-20T12:21:30.197Z,4.87
2018-07-20T12:23:59.055Z,4.87
2018-07-20T12:26:28.621Z,5.50
2018-07-20T12:28:57.311Z,5.03
2018-07-20T12:31:26.716Z,4.40
2018-07-20T12:33:55.618Z,5.20
2018-07-20T12:36:24.414Z,5.23
2018-07-20T12:38:56.057Z,5.10
2018-07-20T12:41:24.806Z,5.53
2018-07-20T12:43:53.727Z,4.80
2018-07-20T12:46:22.446Z,5.13
2018-07-20T12:48:51.362Z,5.13
2018-07-20T12:51:20.061Z,5.07
2018-07-20T12:53:48.831Z,6.00
2018-07-20T12:56:17.666Z,6.33
2018-07-20T12:58:46.556Z,6.23
2018-07-20T13:01:15.369Z,6.60
2018-07-20T13:03:44.187Z,6.13
2018-07-20T13:06:12.909Z,5.50
2018-07-20T13:08:41.823Z,6.30
2018-07-20T13:11:10.939Z,5.63
2018-07-20T13:13:40.015Z,5.97
2018-07-20T13:16:08.740Z,6.30
2018-07-20T13:18:37.587Z,6.90
2018-07-20T13:21:06.595Z,5.63
2018-07-20T13:23:35.354Z,5.47
2018-07-20T13:26:04.175Z,6.20
2018-07-20T13:28:33.057Z,5.30
2018-07-20T13:31:01.983Z,5.57
2018-07-20T13:33:30.790Z,5.10
2018-07-20T13:35:59.658Z,5.67
2018-07-20T13:38:28.552Z,5.73
2018-07-20T13:40:57.286Z,5.47
2018-07-20T13:43:26.201Z,5.37
2018-07-20T13:45:55.192Z,5.40
2018-07-20T13:48:24.187Z,5.50
2018-07-20T13:50:53.069Z,5.33
2018-07-20T13:53:21.853Z,6.20
2018-07-20T13:55:50.796Z,6.13
2018-07-20T13:58:19.617Z,6.27
2018-07-20T14:00:48.809Z,7.77
2018-07-20T14:03:18.506Z,6.83
2018-07-20T14:05:47.453Z,6.30
2018-07-20T14:08:16.403Z,5.83
2018-07-20T14:10:45.516Z,5.40
2018-07-20T14:13:14.326Z,6.90
2018-07-20T14:15:43.197Z,5.00
2018-07-20T14:18:11.986Z,5.63
2018-07-20T14:20:40.928Z,6.53
2018-07-20T14:23:09.862Z,5.87
2018-07-20T14:25:39.143Z,5.80
2018-07-20T14:28:08.244Z,4.80
2018-07-20T14:30:37.264Z,5.13
2018-07-20T14:33:06.097Z,6.20
2018-07-20T14:35:34.994Z,6.00
2018-07-20T14:38:04.076Z,5.67
2018-07-20T14:40:32.923Z,6.40
2018-07-20T14:43:01.853Z,5.13
2018-07-20T14:45:30.777Z,6.10
2018-07-20T14:47:59.647Z,6.70
2018-07-20T14:50:28.396Z,6.30
2018-07-20T14:52:57.424Z,5.50
2018-07-20T14:55:26.216Z,5.80
2018-07-20T14:57:55.713Z,5.93
2018-07-20T15:00:24.533Z,5.43
2018-07-20T15:02:53.393Z,5.83
2018-07-20T15:05:22.236Z,5.00
2018-07-20T15:07:51.291Z,6.37
2018-07-20T15:10:21.117Z,4.90
2018-07-20T15:12:49.907Z,5.53
2018-07-20T15:15:18.597Z,5.33
2018-07-20T15:17:47.382Z,5.40
2018-07-20T15:20:16.355Z,5.07
2018-07-20T15:22:45.133Z,5.10
2018-07-20T15:25:13.939Z,5.67
2018-07-20T15:27:43.064Z,5.70
2018-07-20T15:30:11.879Z,5.03
2018-07-20T15:32:40.705Z,6.50
2018-07-20T15:35:09.679Z,5.57
2018-07-20T15:37:38.715Z,5.30
2018-07-20T15:40:07.447Z,6.20
2018-07-20T15:42:36.259Z,4.93
2018-07-20T15:45:05.393Z,5.77
2018-07-20T15:47:34.484Z,5.40
2018-07-20T15:50:03.164Z,5.90
2018-07-20T15:55:00.669Z,6.30
2018-07-20T15:57:29.807Z,6.67
2018-07-20T15:59:58.633Z,5.23
2018-07-20T16:02:30.063Z,5.67
2018-07-20T16:04:58.829Z,7.90
2018-07-20T16:07:27.865Z,6.40
2018-07-20T16:09:56.655Z,6.17
2018-07-20T16:12:25.510Z,6.83
2018-07-20T16:14:55.290Z,5.30
2018-07-20T16:17:24.149Z,5.53
2018-07-20T16:19:53.037Z,5.77
2018-07-20T16:22:21.978Z,6.43
2018-07-20T16:24:50.634Z,5.77
2018-07-20T16:27:19.416Z,5.90
2018-07-20T16:29:49.215Z,5.00
2018-07-20T16:32:18.124Z,5.17
2018-07-20T16:34:47.084Z,5.97
2018-07-20T16:37:15.935Z,5.43
2018-07-20T16:39:45.322Z,5.27
2018-07-20T16:42:14.034Z,5.87
2018-07-20T16:44:43.030Z,5.30
2018-07-20T16:47:12.939Z,7.10
2018-07-20T16:49:41.822Z,5.47
2018-07-20T16:52:10.965Z,5.63
2018-07-20T16:54:39.837Z,6.70
2018-07-20T16:57:08.769Z,10.20
2018-07-20T16:59:37.494Z,5.37
2018-07-20T17:02:06.397Z,5.50
2018-07-20T17:04:35.308Z,5.67
2018-07-20T17:07:04.294Z,5.33
2018-07-20T17:09:33.066Z,5.30
2018-07-20T17:12:01.977Z,5.03
2018-07-20T17:14:30.987Z,5.20
2018-07-20T17:16:59.759Z,5.30
2018-07-20T17:19:28.485Z,5.67
2018-07-20T17:21:57.170Z,4.90
2018-07-20T17:24:25.973Z,5.23
2018-07-20T17:26:55.315Z,4.90
2018-07-20T17:29:24.709Z,6.00
2018-07-20T17:31:53.894Z,4.53
2018-07-20T17:34:22.812Z,7.40
2018-07-20T17:36:51.775Z,5.53
2018-07-20T17:39:20.646Z,5.27
2018-07-20T17:41:49.394Z,5.20
2018-07-20T17:44:18.118Z,5.50
2018-07-20T17:46:46.830Z,6.07
2018-07-20T17:49:16.376Z,5.43
2018-07-20T17:51:45.174Z,6.30
2018-07-20T17:54:14.186Z,5.77
2018-07-20T17:56:43.014Z,6.10
2018-07-20T17:59:11.916Z,5.77
2018-07-20T18:01:40.754Z,5.60
2018-07-20T18:04:09.555Z,5.30
2018-07-20T18:06:38.283Z,6.10
2018-07-20T18:09:08.792Z,5.60
2018-07-20T18:11:37.496Z,5.80
2018-07-20T18:14:06.843Z,5.90
2018-07-20T18:16:35.823Z,5.70
2018-07-20T18:19:04.697Z,5.10
2018-07-20T18:21:33.480Z,5.57
2018-07-20T18:24:02.233Z,5.90
2018-07-20T18:26:31.059Z,6.43
2018-07-20T18:28:59.945Z,5.50
2018-07-20T18:31:28.737Z,6.50
2018-07-20T18:33:57.626Z,7.37
2018-07-20T18:36:26.554Z,5.70
2018-07-20T18:38:55.671Z,6.87
2018-07-20T18:41:24.403Z,6.53
2018-07-20T18:43:53.181Z,6.50
2018-07-20T18:46:21.921Z,5.57
2018-07-20T18:48:50.736Z,6.27
2018-07-20T18:51:21.084Z,5.40
2018-07-20T18:53:49.841Z,4.50
2018-07-20T18:56:18.656Z,5.20
2018-07-20T18:58:48.240Z,5.50
2018-07-20T19:01:16.951Z,4.47
2018-07-20T19:03:45.791Z,4.67
2018-07-20T19:06:14.560Z,5.70
2018-07-20T19:08:43.288Z,5.03
2018-07-20T19:11:12.235Z,5.40
2018-07-20T19:13:40.934Z,5.27
2018-07-20T19:16:09.736Z,5.20
2018-07-20T19:18:38.575Z,5.13
2018-07-20T19:21:07.372Z,5.43
2018-07-20T19:23:36.356Z,4.70
2018-07-20T19:26:05.258Z,5.10
2018-07-20T19:28:34.935Z,4.90
2018-07-20T19:31:04.235Z,5.17
2018-07-20T19:33:32.937Z,5.33
2018-07-20T19:36:01.745Z,6.20
2018-07-20T19:38:30.506Z,6.70
2018-07-20T19:40:59.343Z,6.83
2018-07-20T19:43:27.986Z,5.80
2018-07-20T19:45:57.002Z,7.03
2018-07-20T19:48:26.023Z,5.93
2018-07-20T19:50:54.846Z,5.97
2018-07-20T19:53:23.960Z,6.37
2018-07-20T19:55:52.761Z,6.67
2018-07-20T19:58:21.472Z,4.90
2018-07-20T20:00:50.359Z,5.90
2018-07-20T20:03:19.066Z,5.33
2018-07-20T20:05:47.812Z,5.77
2018-07-20T20:08:16.675Z,6.40
2018-07-20T20:10:45.760Z,6.37
2018-07-20T20:13:14.654Z,5.63
2018-07-20T20:15:43.758Z,7.37
2018-07-20T20:18:12.479Z,6.20
2018-07-20T20:20:41.268Z,7.10
2018-07-20T20:23:10.040Z,6.47
2018-07-20T20:25:38.731Z,6.50
2018-07-20T20:28:07.833Z,6.17
2018-07-20T20:30:36.563Z,5.63
2018-07-20T20:33:05.250Z,5.40
2018-07-20T20:35:34.022Z,5.80
2018-07-20T20:38:03.428Z,6.00
2018-07-20T20:40:32.358Z,5.33
2018-07-20T20:43:01.236Z,6.37
2018-07-20T20:45:30.130Z,6.27
2018-07-20T20:47:58.882Z,6.20
2018-07-20T20:50:27.765Z,5.90
2018-07-20T20:52:56.606Z,6.60
2018-07-20T20:55:25.408Z,5.07
2018-07-20T20:57:54.270Z,6.80
2018-07-20T21:00:23.239Z,5.80
2018-07-20T21:02:52.931Z,5.50
2018-07-20T21:05:21.798Z,5.80
2018-07-20T21:07:50.521Z,5.97
2018-07-20T21:10:19.262Z,5.37
2018-07-20T21:12:48.094Z,6.20
2018-07-20T21:15:16.847Z,5.00
2018-07-20T21:17:45.652Z,5.50
2018-07-20T21:20:14.551Z,5.67
2018-07-20T21:22:43.363Z,4.93
2018-07-20T21:25:12.372Z,5.70
2018-07-20T21:27:41.339Z,5.30
2018-07-20T21:30:10.112Z,5.57
2018-07-20T21:32:38.918Z,5.37
2018-07-20T21:35:07.776Z,5.60
2018-07-20T21:37:36.509Z,5.20
2018-07-20T21:40:05.456Z,4.93
2018-07-20T21:42:34.306Z,5.20
2018-07-20T21:45:03.097Z,5.40
2018-07-20T21:47:31.866Z,5.40
2018-07-20T21:50:00.686Z,4.83
2018-07-20T21:52:29.460Z,4.80
2018-07-20T21:54:58.428Z,5.10
2018-07-20T21:57:27.368Z,5.77
2018-07-20T21:59:56.181Z,5.27
2018-07-20T22:02:25.059Z,5.13
2018-07-20T22:04:53.783Z,5.10
2018-07-20T22:07:23.329Z,5.60
2018-07-20T22:09:52.194Z,5.33
2018-07-20T22:12:21.053Z,5.87
2018-07-20T22:14:49.837Z,5.03
2018-07-20T22:17:18.697Z,5.90
2018-07-20T22:19:47.866Z,6.07
2018-07-20T22:22:17.085Z,4.80
2018-07-20T22:24:45.790Z,5.47
2018-07-20T22:27:14.609Z,6.63
2018-07-20T22:29:43.346Z,5.83
2018-07-20T22:32:12.063Z,5.23
2018-07-20T22:34:41.124Z,5.33
2018-07-20T22:37:10.038Z,5.83
2018-07-20T22:39:39.007Z,5.47
2018-07-20T22:42:07.792Z,5.53
2018-07-20T22:44:36.721Z,6.90
2018-07-20T22:47:05.963Z,6.20
2018-07-20T22:49:34.673Z,5.20
2018-07-20T22:52:03.386Z,5.20
2018-07-20T22:54:32.117Z,5.97
2018-07-20T22:57:01.365Z,5.27
2018-07-20T22:59:30.126Z,5.97
2018-07-20T23:01:58.858Z,5.23
2018-07-20T23:04:27.813Z,5.27
2018-07-20T23:06:56.898Z,5.47
2018-07-20T23:09:25.699Z,5.30
2018-07-20T23:11:54.472Z,5.20
2018-07-20T23:14:23.263Z,6.37
2018-07-20T23:16:51.963Z,5.37
2018-07-20T23:19:20.895Z,5.60
2018-07-20T23:21:49.686Z,5.27
2018-07-20T23:24:19.773Z,5.60
2018-07-20T23:26:48.626Z,5.40
2018-07-20T23:29:17.459Z,5.73
2018-07-20T23:31:46.430Z,5.90
2018-07-20T23:34:15.285Z,5.13
2018-07-20T23:36:44.209Z,6.03
2018-07-20T23:39:13.850Z,5.27
2018-07-20T23:41:43.730Z,5.37
2018-07-20T23:44:12.439Z,4.67
2018-07-20T23:46:41.235Z,5.77
2018-07-20T23:49:09.922Z,5.40
2018-07-20T23:51:38.984Z,5.57
2018-07-20T23:54:07.742Z,5.73
2018-07-20T23:56:36.530Z,6.20
2018-07-20T23:59:05.461Z,6.67
